Time;durP1;ratioP1;P1;durP2;ratioP2;P2;SDS_P1;SDS_P2;PMS_P1;PMS_P2;Temp;Humidity;BMP_temperature;BMP_pressure;BME280_temperature;BME280_humidity;BME280_pressure;Samples;Min_cycle;Max_cycle;Signal;HPM_P1;HPM_P2
2022/10/02 00:02:35;;;;;;;7.93;1.10;;;;;;;15.47;nan;101944.00;6218947;23;20457;-89
2022/10/02 00:05:22;;;;;;;2.10;1.10;;;;;;;15.40;nan;101936.72;6219908;23;20395;-89
2022/10/02 00:08:09;;;;;;;2.10;0.93;;;;;;;15.39;nan;101943.31;6199838;23;20430;-88
2022/10/02 00:10:54;;;;;;;2.60;1.20;;;;;;;15.33;nan;101931.16;6247007;23;20406;-87
2022/10/02 00:13:26;;;;;;;2.57;0.93;;;;;;;15.32;nan;101928.59;6197247;23;20406;-88
2022/10/02 00:15:54;;;;;;;1.97;0.90;;;;;;;15.28;nan;101922.63;6246292;23;20403;-88
2022/10/02 00:18:29;;;;;;;3.00;1.10;;;;;;;15.27;nan;101925.56;6163213;23;20443;-90
2022/10/02 00:21:27;;;;;;;1.10;0.60;;;;;;;15.31;nan;101927.75;6167111;23;20478;-89
2022/10/02 00:24:02;;;;;;;3.13;1.40;;;;;;;15.16;nan;101922.28;6131461;23;20414;-89
2022/10/02 00:26:40;;;;;;;2.13;0.90;;;;;;;15.11;nan;101927.53;6143106;23;20779;-88
2022/10/02 00:29:38;;;;;;;2.53;0.80;;;;;;;15.10;nan;101917.56;6166625;23;20443;-88
2022/10/02 00:32:25;;;;;;;6.33;1.03;;;;;;;15.09;nan;101913.09;6215840;23;20406;-89
2022/10/02 00:35:16;;;;;;;9.93;0.83;;;;;;;15.09;nan;101915.00;6191691;23;20841;-90
2022/10/02 00:37:51;;;;;;;3.97;0.90;;;;;;;15.07;nan;101920.69;6216476;23;20396;-88
2022/10/02 00:40:56;;;;;;;3.37;1.00;;;;;;;15.08;nan;101902.28;6191123;23;20406;-88
2022/10/02 00:43:54;;;;;;;4.27;1.10;;;;;;;15.03;nan;101904.75;6217295;23;20412;-88
2022/10/02 00:49:38;;;;;;;4.33;1.07;;;;;;;14.96;nan;101904.69;6217726;23;20428;-89
2022/10/02 00:52:43;;;;;;;4.97;1.57;;;;;;;14.92;nan;101903.38;6191115;23;20388;-89
2022/10/02 00:55:41;;;;;;;3.70;1.20;;;;;;;14.88;nan;101895.69;6188692;23;20414;-89
2022/10/02 00:58:47;;;;;;;4.23;1.00;;;;;;;14.83;nan;101888.00;6191130;23;20400;-87
2022/10/02 01:01:42;;;;;;;3.33;1.33;;;;;;;14.82;nan;101887.16;6217351;23;20403;-89
2022/10/02 01:04:14;;;;;;;4.03;1.47;;;;;;;14.78;nan;101877.59;6185941;23;20407;-89
2022/10/02 01:06:43;;;;;;;5.13;1.13;;;;;;;14.77;nan;101872.28;6166913;23;20408;-88
2022/10/02 01:09:12;;;;;;;10.90;1.30;;;;;;;14.73;nan;101859.97;6165889;23;20539;-87
2022/10/02 01:11:40;;;;;;;3.40;1.13;;;;;;;14.74;nan;101862.53;6167133;23;20411;-88
2022/10/02 01:14:08;;;;;;;3.23;1.00;;;;;;;14.59;nan;101847.94;6166395;23;20898;-90
2022/10/02 01:16:35;;;;;;;4.50;1.20;;;;;;;14.69;nan;101872.38;6141856;23;20477;-90
2022/10/02 01:19:03;;;;;;;5.47;1.50;;;;;;;14.68;nan;101856.91;6166170;23;20440;-88
2022/10/02 01:21:47;;;;;;;1.77;1.10;;;;;;;14.69;nan;101859.47;6142988;23;20396;-87
2022/10/02 01:24:29;;;;;;;4.27;1.53;;;;;;;14.73;nan;101854.44;6142619;23;20401;-90
2022/10/02 01:27:04;;;;;;;3.10;1.23;;;;;;;14.70;nan;101849.34;6168163;23;20475;-90
2022/10/02 01:29:41;;;;;;;4.97;1.37;;;;;;;14.68;nan;101846.78;6165243;23;20485;-90
2022/10/02 01:32:11;;;;;;;10.50;1.53;;;;;;;14.66;nan;101839.75;6166708;23;20574;-88
2022/10/02 01:34:54;;;;;;;9.47;1.30;;;;;;;14.60;nan;101848.81;6142275;23;20840;-88
2022/10/02 01:37:31;;;;;;;3.90;1.00;;;;;;;14.54;nan;101835.81;6215504;23;20412;-88
2022/10/02 01:40:33;;;;;;;5.13;1.23;;;;;;;14.45;nan;101835.91;6191030;23;20415;-89
2022/10/02 01:43:17;;;;;;;3.07;0.93;;;;;;;14.43;nan;101843.50;6106136;23;20465;-89
2022/10/02 01:46:16;;;;;;;4.10;1.20;;;;;;;14.39;nan;101844.91;6083228;23;20637;-88
2022/10/02 01:48:45;;;;;;;9.53;1.00;;;;;;;14.42;nan;101840.97;6091222;23;20449;-89
2022/10/02 01:51:51;;;;;;;2.30;0.93;;;;;;;14.43;nan;101840.75;6130637;23;20739;-89
2022/10/02 01:54:48;;;;;;;6.97;1.43;;;;;;;14.39;nan;101847.66;6154007;23;20410;-89
2022/10/02 01:57:55;;;;;;;4.30;1.20;;;;;;;14.36;nan;101834.28;6154679;23;20948;-89
2022/10/02 02:00:24;;;;;;;4.17;1.10;;;;;;;14.31;nan;101823.00;6154456;23;20413;-88
2022/10/02 02:03:28;;;;;;;7.60;1.40;;;;;;;14.35;nan;101835.34;6082946;23;20520;-90
2022/10/02 02:06:02;;;;;;;2.40;0.90;;;;;;;14.35;nan;101832.59;6140814;23;20407;-90
2022/10/02 02:09:00;;;;;;;9.53;1.40;;;;;;;14.42;nan;101836.31;6166233;23;20514;-90
2022/10/02 02:11:33;;;;;;;2.30;1.23;;;;;;;14.45;nan;101822.16;6214628;23;20423;-88
2022/10/02 02:14:13;;;;;;;2.53;1.50;;;;;;;14.47;nan;101821.97;6190408;23;20463;-89
2022/10/02 02:16:51;;;;;;;2.37;0.97;;;;;;;14.39;nan;101798.16;6165751;23;20478;-89
2022/10/02 02:19:41;;;;;;;1.97;1.10;;;;;;;14.38;nan;101799.19;6209856;23;20438;-88
2022/10/02 02:22:18;;;;;;;2.23;0.80;;;;;;;14.33;nan;101793.41;6195563;23;20423;-88
2022/10/02 02:24:56;;;;;;;4.37;1.00;;;;;;;14.31;nan;101805.66;6195585;23;20511;-90
2022/10/02 02:27:35;;;;;;;1.80;1.17;;;;;;;14.25;nan;101795.41;6220798;23;20753;-89
2022/10/02 02:30:07;;;;;;;2.23;0.67;;;;;;;14.27;nan;101794.19;6170684;23;20548;-89
2022/10/02 02:32:40;;;;;;;3.20;0.90;;;;;;;14.26;nan;101799.88;6171492;23;20461;-89
2022/10/02 02:35:14;;;;;;;4.83;1.10;;;;;;;14.23;nan;101798.38;6219678;23;20411;-89
2022/10/02 02:37:42;;;;;;;2.60;1.27;;;;;;;14.11;nan;101783.41;6196725;23;20394;-90
2022/10/02 02:40:21;;;;;;;2.23;0.97;;;;;;;14.09;nan;101785.47;6171261;23;20494;-89
2022/10/02 02:43:53;;;;;;;2.50;0.90;;;;;;;14.06;nan;101781.22;6195891;23;20877;-94
2022/10/02 02:47:02;;;;;;;1.67;0.80;;;;;;;14.02;nan;101776.31;6124103;23;20690;-89
2022/10/02 02:49:26;;;;;;;2.70;1.00;;;;;;;14.00;nan;101776.50;6104835;23;20457;-87
2022/10/02 02:51:53;;;;;;;3.53;1.10;;;;;;;13.98;nan;101777.75;6076690;23;20890;-90
2022/10/02 02:54:53;;;;;;;1.80;0.90;;;;;;;14.04;nan;101782.47;6075913;23;20611;-90
2022/10/02 02:57:44;;;;;;;2.10;1.10;;;;;;;14.08;nan;101783.78;6100082;23;20417;-89
2022/10/02 03:00:14;;;;;;;2.47;1.20;;;;;;;14.11;nan;101788.91;6100645;23;20546;-90
2022/10/02 03:02:44;;;;;;;3.30;0.97;;;;;;;14.10;nan;101787.19;6076895;23;20597;-90
2022/10/02 03:05:13;;;;;;;2.23;0.73;;;;;;;14.06;nan;101781.22;6076426;23;20406;-90
2022/10/02 03:08:00;;;;;;;9.37;1.13;;;;;;;14.06;nan;101781.22;6076832;23;20558;-90
2022/10/02 03:10:40;;;;;;;2.17;0.90;;;;;;;14.07;nan;101774.69;6077214;23;20434;-90
2022/10/02 03:13:45;;;;;;;3.73;0.90;;;;;;;14.06;nan;101769.38;6124803;23;20545;-91
2022/10/02 03:16:50;;;;;;;1.77;0.87;;;;;;;14.06;nan;101763.88;6124218;23;20410;-88
2022/10/02 03:19:48;;;;;;;2.23;1.10;;;;;;;14.06;nan;101769.38;6128437;23;20528;-90
2022/10/02 03:23:07;;;;;;;3.70;0.87;;;;;;;14.05;nan;101763.03;6195413;23;20415;-90
2022/10/02 03:25:56;;;;;;;2.27;0.97;;;;;;;14.03;nan;101753.28;6124606;23;20489;-91
2022/10/02 03:28:50;;;;;;;4.20;0.90;;;;;;;14.04;nan;101752.25;6123586;23;20409;-90
2022/10/02 03:31:29;;;;;;;5.30;1.40;;;;;;;14.03;nan;101736.78;6078645;23;20406;-89
2022/10/02 03:34:03;;;;;;;5.23;1.00;;;;;;;14.07;nan;101738.09;6076179;23;20892;-89
2022/10/02 03:36:30;;;;;;;3.73;1.00;;;;;;;14.08;nan;101739.78;6076268;23;21021;-88
2022/10/02 03:39:01;;;;;;;5.53;0.80;;;;;;;14.09;nan;101747.00;6053083;23;20469;-88
2022/10/02 03:41:48;;;;;;;1.87;0.70;;;;;;;14.08;nan;101740.66;6085869;23;20410;-89
2022/10/02 03:44:16;;;;;;;1.53;0.70;;;;;;;14.05;nan;101723.69;6078457;23;20479;-89
2022/10/02 03:46:54;;;;;;;1.83;0.70;;;;;;;14.05;nan;101740.19;6078049;23;20450;-90
2022/10/02 03:49:22;;;;;;;1.87;0.80;;;;;;;13.99;nan;101727.22;6078128;23;20554;-88
2022/10/02 03:51:50;;;;;;;2.10;1.13;;;;;;;13.95;nan;101714.91;6054349;23;20489;-90
2022/10/02 03:54:18;;;;;;;4.63;1.23;;;;;;;13.96;nan;101719.34;6078212;23;20552;-88
2022/10/02 03:56:53;;;;;;;2.40;0.80;;;;;;;13.94;nan;101716.78;6054817;23;20493;-88
2022/10/02 03:59:30;;;;;;;2.30;0.63;;;;;;;13.90;nan;101709.97;6078367;23;20488;-88
2022/10/02 04:02:00;;;;;;;3.83;0.90;;;;;;;13.85;nan;101701.47;6221465;23;20421;-90
2022/10/02 04:04:35;;;;;;;1.93;0.80;;;;;;;13.89;nan;101713.75;6197380;23;20399;-88
2022/10/02 04:07:06;;;;;;;2.90;0.77;;;;;;;13.86;nan;101714.16;6173253;23;20513;-88
2022/10/02 04:09:53;;;;;;;8.10;1.30;;;;;;;13.83;nan;101709.91;6196376;23;20434;-88
2022/10/02 04:12:28;;;;;;;2.90;0.50;;;;;;;13.80;nan;101706.69;6198630;23;20489;-89
2022/10/02 04:15:06;;;;;;;3.50;0.80;;;;;;;13.82;nan;101713.69;6172039;23;20413;-90
2022/10/02 04:17:43;;;;;;;1.83;0.80;;;;;;;13.80;nan;101709.44;6173616;23;20391;-88
2022/10/02 04:20:44;;;;;;;3.33;1.43;;;;;;;13.76;nan;101705.34;6173360;23;20398;-88
2022/10/02 04:23:32;;;;;;;2.17;0.80;;;;;;;13.77;nan;101718.06;6189216;23;20401;-88
2022/10/02 04:26:15;;;;;;;5.30;0.80;;;;;;;13.72;nan;101707.63;6196592;23;20407;-89
2022/10/02 04:28:46;;;;;;;1.20;0.50;;;;;;;13.72;nan;101707.63;6172824;23;20489;-88
2022/10/02 04:31:14;;;;;;;3.30;0.67;;;;;;;13.76;nan;101708.97;6172541;23;20391;-89
2022/10/02 04:33:42;;;;;;;2.37;1.07;;;;;;;13.79;nan;101718.72;6196532;23;20537;-88
2022/10/02 04:36:25;;;;;;;2.90;0.77;;;;;;;13.82;nan;101721.94;6196954;23;20793;-89
2022/10/02 04:39:15;;;;;;;1.60;0.70;;;;;;;13.82;nan;101719.19;6246522;23;20489;-88
2022/10/02 04:41:51;;;;;;;1.40;0.70;;;;;;;13.78;nan;101720.63;6199170;23;20949;-88
2022/10/02 04:44:31;;;;;;;3.33;0.60;;;;;;;13.78;nan;101717.88;6219609;23;20767;-88
2022/10/02 04:47:21;;;;;;;2.43;0.90;;;;;;;13.74;nan;101715.69;6196811;23;20478;-89
2022/10/02 04:50:19;;;;;;;5.13;0.70;;;;;;;13.75;nan;101714.66;6200188;23;20885;-88
2022/10/02 04:53:11;;;;;;;3.43;0.67;;;;;;;13.72;nan;101707.63;6221030;23;21039;-88
2022/10/02 04:55:54;;;;;;;5.27;0.80;;;;;;;13.68;nan;101714.53;6213657;23;20529;-89
2022/10/02 04:58:53;;;;;;;3.00;0.70;;;;;;;13.72;nan;101718.63;6215869;23;20897;-90
2022/10/02 05:01:44;;;;;;;2.60;0.70;;;;;;;13.71;nan;101718.81;6210368;23;20732;-89
2022/10/02 05:04:53;;;;;;;2.73;0.83;;;;;;;13.68;nan;101728.28;6247907;23;20865;-88
2022/10/02 05:07:23;;;;;;;2.70;0.70;;;;;;;13.72;nan;101717.75;6199846;23;20548;-88
2022/10/02 05:10:27;;;;;;;1.83;0.63;;;;;;;13.69;nan;101719.00;6245668;23;20497;-89
2022/10/02 05:13:06;;;;;;;2.03;0.67;;;;;;;13.68;nan;101721.94;6221128;23;20844;-88
2022/10/02 05:15:45;;;;;;;3.10;1.00;;;;;;;13.70;nan;101731.69;6196948;23;20448;-89
2022/10/02 05:18:40;;;;;;;1.20;0.60;;;;;;;13.71;nan;101736.16;6188716;23;20424;-88
2022/10/02 05:21:16;;;;;;;3.13;0.77;;;;;;;13.69;nan;101740.97;6191038;23;20977;-89
2022/10/02 05:24:09;;;;;;;1.20;0.50;;;;;;;13.70;nan;101748.16;6142091;23;20414;-89
2022/10/02 05:26:50;;;;;;;4.67;0.90;;;;;;;13.68;nan;101750.25;6165648;23;20545;-88
2022/10/02 05:29:40;;;;;;;1.20;0.40;;;;;;;13.66;nan;101757.81;6216433;23;20514;-89
2022/10/02 05:32:13;;;;;;;3.00;0.53;;;;;;;13.61;nan;101749.31;6190932;23;20472;-88
2022/10/02 05:34:44;;;;;;;2.30;0.77;;;;;;;13.60;nan;101758.59;6191085;23;20400;-88
2022/10/02 05:37:35;;;;;;;2.30;0.53;;;;;;;13.54;nan;101742.03;6191064;23;20926;-89
2022/10/02 05:40:13;;;;;;;2.03;0.67;;;;;;;13.60;nan;101764.09;6166311;23;20876;-88
2022/10/02 05:42:52;;;;;;;3.80;0.67;;;;;;;13.58;nan;101771.69;6190890;23;20543;-88
2022/10/02 05:45:40;;;;;;;1.20;0.60;;;;;;;13.62;nan;101774.91;6166660;23;20404;-90
2022/10/02 05:48:27;;;;;;;5.43;1.30;;;;;;;13.56;nan;101750.94;6190229;23;20408;-89
2022/10/02 05:50:58;;;;;;;4.47;0.73;;;;;;;13.53;nan;101738.41;6142191;23;20571;-89
2022/10/02 05:53:52;;;;;;;3.57;0.60;;;;;;;13.56;nan;101754.53;6166607;23;20415;-88
2022/10/02 05:56:32;;;;;;;6.60;0.73;;;;;;;13.58;nan;101751.59;6145768;23;20473;-90
2022/10/02 05:59:07;;;;;;;3.43;0.90;;;;;;;13.54;nan;101747.50;6165671;23;20407;-88
2022/10/02 06:01:40;;;;;;;2.03;0.60;;;;;;;13.57;nan;101764.47;6190167;23;20806;-87
2022/10/02 06:04:22;;;;;;;3.83;0.87;;;;;;;13.51;nan;101759.72;6165384;23;20587;-88
2022/10/02 06:06:54;;;;;;;13.77;0.97;;;;;;;13.48;nan;101763.69;6189994;23;20404;-89
2022/10/02 06:09:40;;;;;;;1.40;0.60;;;;;;;13.42;nan;101753.47;6166019;23;20514;-90
2022/10/02 06:12:13;;;;;;;1.67;0.73;;;;;;;13.41;nan;101754.53;6190260;23;20542;-90
2022/10/02 06:14:51;;;;;;;8.10;1.17;;;;;;;13.36;nan;101745.13;6190347;23;20486;-89
2022/10/02 06:17:46;;;;;;;1.50;0.60;;;;;;;13.42;nan;101766.38;6141697;23;20453;-90
2022/10/02 06:20:25;;;;;;;3.20;0.80;;;;;;;13.41;nan;101767.41;6160098;23;20762;-89
2022/10/02 06:23:10;;;;;;;3.07;1.23;;;;;;;13.36;nan;101758.84;6214865;23;20403;-88
2022/10/02 06:25:49;;;;;;;3.23;0.53;;;;;;;13.35;nan;101754.41;6165345;23;20471;-89
2022/10/02 06:28:37;;;;;;;2.17;0.70;;;;;;;13.40;nan;101769.28;6165618;23;20869;-88
2022/10/02 06:31:11;;;;;;;10.53;1.10;;;;;;;13.34;nan;101758.19;6190179;23;20450;-88
2022/10/02 06:33:41;;;;;;;5.80;0.83;;;;;;;13.33;nan;101756.50;6165731;23;20774;-90
2022/10/02 06:36:21;;;;;;;6.50;1.00;;;;;;;13.38;nan;101759.53;6190038;23;20498;-90
2022/10/02 06:39:30;;;;;;;2.80;0.90;;;;;;;13.26;nan;101741.81;6189726;23;20486;-89
2022/10/02 06:42:05;;;;;;;7.93;1.10;;;;;;;13.33;nan;101751.00;6161348;23;20408;-90
2022/10/02 06:44:51;;;;;;;11.23;1.30;;;;;;;13.39;nan;101747.50;6165917;23;20390;-89
2022/10/02 06:47:41;;;;;;;8.23;1.30;;;;;;;13.43;nan;101757.09;6190252;23;20867;-88
2022/10/02 06:50:47;;;;;;;8.10;1.13;;;;;;;13.45;nan;101757.75;6214608;23;20505;-88
2022/10/02 06:53:26;;;;;;;5.23;1.27;;;;;;;13.46;nan;101762.22;6189936;23;20477;-90
2022/10/02 06:56:03;;;;;;;6.17;1.60;;;;;;;13.49;nan;101765.41;6188690;23;20475;-89
2022/10/02 06:58:58;;;;;;;11.80;0.90;;;;;;;13.54;nan;101774.97;6165348;23;20499;-89
2022/10/02 07:01:53;;;;;;;2.80;0.90;;;;;;;13.53;nan;101774.13;6190013;23;20488;-89
2022/10/02 07:04:41;;;;;;;7.60;1.33;;;;;;;13.58;nan;101787.31;6166223;23;20408;-89
2022/10/02 07:07:18;;;;;;;5.87;1.30;;;;;;;13.52;nan;101777.91;6188330;23;20399;-89
2022/10/02 07:10:08;;;;;;;2.33;0.90;;;;;;;13.60;nan;101786.06;6165658;23;20485;-89
2022/10/02 07:12:55;;;;;;;10.63;1.07;;;;;;;13.67;nan;101780.66;6214406;23;20479;-89
2022/10/02 07:15:36;;;;;;;9.43;1.13;;;;;;;13.76;nan;101769.41;6189228;23;20483;-89
2022/10/02 07:18:26;;;;;;;4.47;1.30;;;;;;;13.93;nan;101777.44;6220045;22;20557;-89
2022/10/02 07:21:15;;;;;;;5.20;1.23;;;;;;;14.10;nan;101781.69;6194863;23;20403;-89
2022/10/02 07:24:07;;;;;;;8.77;1.60;;;;;;;14.24;nan;101783.56;6220179;23;20407;-89
2022/10/02 07:27:07;;;;;;;5.30;1.77;;;;;;;14.32;nan;101780.72;6246068;23;20489;-89
2022/10/02 07:29:40;;;;;;;13.17;1.50;;;;;;;14.40;nan;101788.91;6205126;23;20418;-90
2022/10/02 07:32:51;;;;;;;2.07;1.00;;;;;;;14.56;nan;101792.44;6195653;23;20410;-90
2022/10/02 07:36:14;;;;;;;7.00;1.30;;;;;;;14.72;nan;101789.44;6220281;23;20391;-89
2022/10/02 07:39:00;;;;;;;4.97;0.63;;;;;;;14.99;nan;101791.44;6117877;23;20862;-90
2022/10/02 07:42:12;;;;;;;7.23;1.00;;;;;;;15.20;nan;101785.88;6071600;23;20418;-91
2022/10/02 07:45:05;;;;;;;3.33;0.70;;;;;;;15.36;nan;101783.91;6116973;23;20418;-91
2022/10/02 07:48:10;;;;;;;3.73;1.03;;;;;;;15.50;nan;101785.72;6124581;23;20414;-89
2022/10/02 07:50:51;;;;;;;3.00;0.70;;;;;;;15.74;nan;101788.03;6124306;23;20524;-92
2022/10/02 07:53:47;;;;;;;2.43;0.90;;;;;;;16.10;nan;101792.47;6089837;23;20418;-90
2022/10/02 07:56:18;;;;;;;4.70;1.20;;;;;;;16.32;nan;101791.31;6124677;23;20525;-89
2022/10/02 07:58:55;;;;;;;1.30;0.60;;;;;;;16.56;nan;101793.50;6054708;23;20854;-91
2022/10/02 08:01:26;;;;;;;1.30;0.50;;;;;;;16.69;nan;101775.31;6053304;23;20912;-91
2022/10/02 08:04:09;;;;;;;1.83;0.40;;;;;;;16.97;nan;101784.28;6077149;23;20518;-91
2022/10/02 10:04:16;;;;;;;4.20;0.43;;;;;;;23.04;nan;101749.69;6119133;23;20394;-93
2022/10/02 10:10:18;;;;;;;10.40;0.80;;;;;;;23.27;nan;101741.16;6123588;23;20505;-92
2022/10/02 10:13:38;;;;;;;5.90;1.17;;;;;;;23.40;nan;101732.44;6103139;23;20539;-96
2022/10/02 10:16:17;;;;;;;21.57;3.27;;;;;;;23.56;nan;101724.31;6124667;23;20410;-91
2022/10/02 10:19:12;;;;;;;16.23;3.73;;;;;;;23.70;nan;101722.84;6101723;23;20413;-92
2022/10/02 10:22:20;;;;;;;2.80;0.67;;;;;;;23.89;nan;101723.38;6082103;23;20429;-92
2022/10/02 10:25:38;;;;;;;2.80;0.97;;;;;;;24.02;nan;101715.50;6102088;23;20490;-93
2022/10/02 10:28:37;;;;;;;7.40;0.70;;;;;;;24.15;nan;101722.63;6103349;23;20961;-92
2022/10/02 10:31:30;;;;;;;4.50;1.17;;;;;;;24.22;nan;101708.47;6103713;23;20434;-92
2022/10/02 10:34:37;;;;;;;3.50;0.67;;;;;;;24.43;nan;101707.63;6191898;23;20408;-92
2022/10/02 10:44:29;;;;;;;1.50;0.57;;;;;;;24.90;nan;101706.97;6216039;23;20411;-90
2022/10/02 11:52:55;;;;;;;4.33;1.20;;;;;;;27.51;nan;101645.69;6216240;23;20383;-91
2022/10/02 11:55:43;;;;;;;3.47;0.87;;;;;;;27.66;nan;101652.41;6215747;23;20441;-90
2022/10/02 11:58:40;;;;;;;9.10;1.07;;;;;;;27.77;nan;101645.63;6190158;23;20461;-90
2022/10/02 12:01:40;;;;;;;3.47;0.73;;;;;;;27.91;nan;101646.69;6215468;23;20423;-90
2022/10/02 12:04:33;;;;;;;10.23;1.20;;;;;;;27.96;nan;101641.03;6192260;23;20402;-88
2022/10/02 12:07:27;;;;;;;4.73;1.00;;;;;;;28.10;nan;101644.91;6196096;23;20420;-89
2022/10/02 12:10:20;;;;;;;5.03;1.10;;;;;;;28.17;nan;101634.19;6191024;23;20442;-88
2022/10/02 12:13:28;;;;;;;10.53;1.60;;;;;;;28.23;nan;101634.19;6191728;23;20407;-90
2022/10/02 12:16:11;;;;;;;4.53;1.03;;;;;;;28.32;nan;101632.44;6166628;23;20486;-90
2022/10/02 12:18:45;;;;;;;3.23;0.80;;;;;;;28.42;nan;101621.13;6194915;23;20482;-90
2022/10/02 12:28:12;;;;;;;4.03;1.00;;;;;;;28.65;nan;101631.66;6118407;23;20416;-90
2022/10/02 12:31:06;;;;;;;4.97;0.83;;;;;;;28.75;nan;101640.00;6110451;23;20649;-90
2022/10/02 12:34:04;;;;;;;5.37;1.10;;;;;;;28.87;nan;101646.09;6107492;23;20413;-90
2022/10/02 12:36:55;;;;;;;6.20;1.23;;;;;;;28.90;nan;101643.84;6131587;23;20401;-90
2022/10/02 12:40:08;;;;;;;4.33;0.90;;;;;;;28.95;nan;101643.81;6131746;23;20421;-90
2022/10/02 12:43:15;;;;;;;11.53;1.30;;;;;;;28.95;nan;101638.19;6155596;23;20886;-90
2022/10/02 12:46:21;;;;;;;18.63;2.00;;;;;;;29.00;nan;101632.50;6171396;23;20411;-90
2022/10/02 12:49:12;;;;;;;22.07;1.40;;;;;;;29.11;nan;101634.06;6191822;23;20707;-89
2022/10/02 12:52:29;;;;;;;18.73;1.10;;;;;;;29.04;nan;101620.38;6191461;23;20446;-91
2022/10/02 12:58:49;;;;;;;11.27;1.27;;;;;;;29.17;nan;101619.66;6218051;23;20422;-92
2022/10/02 13:02:27;;;;;;;7.80;1.37;;;;;;;29.18;nan;101614.88;6191455;23;20415;-92
2022/10/02 13:05:33;;;;;;;5.17;1.00;;;;;;;29.26;nan;101605.75;6140346;23;20404;-88
2022/10/02 13:08:17;;;;;;;9.33;1.00;;;;;;;29.26;nan;101588.84;6154850;23;20393;-89
2022/10/02 13:10:44;;;;;;;10.03;0.97;;;;;;;29.33;nan;101591.31;6082797;23;20437;-88
2022/10/02 13:13:35;;;;;;;3.97;0.60;;;;;;;29.28;nan;101586.56;6154511;23;20509;-88
2022/10/02 13:16:23;;;;;;;12.73;1.03;;;;;;;29.26;nan;101580.41;6102605;23;20488;-88
2022/10/02 13:19:00;;;;;;;3.93;0.93;;;;;;;29.26;nan;101582.38;6130549;23;20428;-89
2022/10/02 13:22:08;;;;;;;4.23;0.90;;;;;;;29.25;nan;101570.28;6130672;23;20899;-88
2022/10/02 13:25:15;;;;;;;5.57;1.13;;;;;;;29.28;nan;101564.03;6123096;23;20410;-88
2022/10/02 13:28:08;;;;;;;14.93;1.63;;;;;;;29.31;nan;101569.09;6125136;23;20406;-87
2022/10/02 13:30:45;;;;;;;3.30;0.97;;;;;;;29.35;nan;101556.09;6098882;23;20512;-88
2022/10/02 13:33:37;;;;;;;10.23;1.50;;;;;;;29.44;nan;101562.75;6129560;23;20409;-89
2022/10/02 13:36:27;;;;;;;3.87;0.93;;;;;;;29.39;nan;101556.34;6106046;23;20405;-88
2022/10/02 13:39:02;;;;;;;2.90;0.80;;;;;;;29.25;nan;101552.56;6158871;23;20407;-88
2022/10/02 13:41:44;;;;;;;6.67;1.80;;;;;;;29.11;nan;101543.97;6190627;23;20411;-88
2022/10/02 13:44:49;;;;;;;3.27;0.90;;;;;;;29.12;nan;101537.22;6144472;23;20486;-89
2022/10/02 13:47:51;;;;;;;6.80;1.03;;;;;;;29.23;nan;101530.34;6216573;23;20442;-88
2022/10/02 13:50:36;;;;;;;9.60;0.97;;;;;;;29.34;nan;101531.88;6147080;23;20403;-89
2022/10/02 13:53:30;;;;;;;2.27;0.60;;;;;;;29.35;nan;101542.00;6143359;23;20407;-88
2022/10/02 13:56:38;;;;;;;5.23;0.93;;;;;;;29.28;nan;101535.88;6166163;23;20415;-89
2022/10/02 13:59:19;;;;;;;3.73;1.20;;;;;;;29.30;nan;101527.97;6145358;23;20474;-89
2022/10/02 14:02:09;;;;;;;7.33;1.00;;;;;;;29.29;nan;101531.94;6165966;23;20429;-89
2022/10/02 14:05:04;;;;;;;6.53;1.43;;;;;;;29.29;nan;101514.19;6190180;23;20740;-89
2022/10/02 14:07:47;;;;;;;15.00;2.23;;;;;;;29.25;nan;101524.41;6192689;23;20400;-88
2022/10/02 14:10:37;;;;;;;10.73;1.60;;;;;;;29.23;nan;101521.88;6160815;23;20392;-88
2022/10/02 14:13:15;;;;;;;8.00;1.70;;;;;;;29.29;nan;101542.34;6179557;23;20392;-87
2022/10/02 14:15:46;;;;;;;16.43;2.00;;;;;;;29.37;nan;101536.91;6190581;23;20414;-89
2022/10/02 14:18:49;;;;;;;7.27;1.70;;;;;;;29.47;nan;101531.16;6190233;23;20554;-88
2022/10/02 14:21:34;;;;;;;4.63;1.10;;;;;;;29.53;nan;101532.78;6142688;23;20480;-89
2022/10/02 14:24:20;;;;;;;6.60;1.60;;;;;;;29.43;nan;101538.56;6105834;23;21026;-89
2022/10/02 14:27:02;;;;;;;11.63;1.80;;;;;;;29.37;nan;101534.09;6106355;23;20408;-89
2022/10/02 14:29:48;;;;;;;16.10;2.10;;;;;;;29.25;nan;101542.09;6009550;23;20409;-89
2022/10/02 14:32:34;;;;;;;16.37;2.27;;;;;;;29.23;nan;101532.31;6009577;23;20971;-89
2022/10/02 14:35:20;;;;;;;20.23;1.90;;;;;;;29.20;nan;101534.59;6009778;23;20409;-89
2022/10/02 14:38:20;;;;;;;6.40;1.10;;;;;;;29.28;nan;101535.03;6009611;23;20478;-88
2022/10/02 14:40:53;;;;;;;7.90;1.20;;;;;;;29.29;nan;101526.28;5986779;23;20549;-88
2022/10/02 14:43:52;;;;;;;7.60;1.73;;;;;;;29.33;nan;101527.38;6008818;23;20484;-90
2022/10/02 14:46:55;;;;;;;7.20;1.43;;;;;;;29.33;nan;101518.94;5986307;23;20993;-89
2022/10/02 14:49:48;;;;;;;10.37;1.37;;;;;;;29.36;nan;101518.31;6100793;23;20405;-89
2022/10/02 14:52:46;;;;;;;5.27;1.20;;;;;;;29.40;nan;101519.44;6106239;23;20436;-89
2022/10/02 14:55:43;;;;;;;12.33;1.70;;;;;;;29.39;nan;101523.41;6149271;23;20415;-89
2022/10/02 14:58:13;;;;;;;7.47;1.30;;;;;;;29.32;nan;101525.69;6214869;23;20403;-89
2022/10/02 15:01:25;;;;;;;5.10;1.13;;;;;;;29.24;nan;101515.13;6215243;23;20400;-89
2022/10/02 15:04:06;;;;;;;6.13;1.43;;;;;;;29.14;nan;101518.03;6094217;23;20494;-89
2022/10/02 15:07:20;;;;;;;12.60;1.30;;;;;;;29.06;nan;101513.03;6119157;23;20422;-89
2022/10/02 15:10:14;;;;;;;6.20;1.07;;;;;;;29.02;nan;101506.38;6037457;23;20615;-89
2022/10/02 15:12:50;;;;;;;6.27;1.50;;;;;;;28.92;nan;101503.66;5952707;24;20456;-89
2022/10/02 15:15:26;;;;;;;13.20;1.20;;;;;;;28.81;nan;101495.31;5952595;24;20523;-89
2022/10/02 15:18:32;;;;;;;7.27;1.20;;;;;;;28.76;nan;101508.56;5952392;24;20899;-89
2022/10/02 15:21:25;;;;;;;5.03;1.50;;;;;;;28.68;nan;101507.22;5958042;23;20438;-89
2022/10/02 15:23:55;;;;;;;6.43;1.00;;;;;;;28.58;nan;101501.72;6003168;23;20419;-89
2022/10/02 15:26:34;;;;;;;5.90;2.00;;;;;;;28.54;nan;101493.03;5990981;23;20752;-89
2022/10/02 15:29:29;;;;;;;5.63;1.30;;;;;;;28.53;nan;101513.00;6014014;23;20404;-88
2022/10/02 15:32:19;;;;;;;6.10;1.43;;;;;;;28.46;nan;101509.72;6096093;23;20550;-88
2022/10/02 15:35:01;;;;;;;7.80;1.40;;;;;;;28.43;nan;101501.88;6123437;23;20402;-88
2022/10/02 15:37:42;;;;;;;11.97;1.30;;;;;;;28.38;nan;101499.94;6125465;23;20557;-89
2022/10/02 15:40:30;;;;;;;11.60;1.73;;;;;;;28.40;nan;101496.81;6079943;23;20541;-88
2022/10/02 15:43:13;;;;;;;8.63;1.37;;;;;;;28.40;nan;101492.03;6125990;23;20924;-89
2022/10/02 15:45:49;;;;;;;10.53;1.73;;;;;;;28.30;nan;101492.13;6171710;23;20413;-89
2022/10/02 15:48:46;;;;;;;11.77;1.00;;;;;;;28.24;nan;101492.47;6193142;23;20410;-89
2022/10/02 15:51:40;;;;;;;12.73;1.20;;;;;;;28.23;nan;101496.41;6192612;23;20514;-89
2022/10/02 15:54:29;;;;;;;17.03;1.93;;;;;;;28.21;nan;101493.91;6191089;23;20414;-89
2022/10/02 15:57:23;;;;;;;9.33;1.57;;;;;;;28.05;nan;101504.41;6191523;23;20475;-89
2022/10/02 16:00:29;;;;;;;6.73;1.93;;;;;;;27.91;nan;101500.53;6191830;23;20486;-88
2022/10/02 16:02:57;;;;;;;7.90;1.23;;;;;;;27.83;nan;101490.78;6151866;23;20413;-89
2022/10/02 16:05:51;;;;;;;9.63;1.50;;;;;;;27.82;nan;101496.69;6155337;23;20544;-88
2022/10/02 16:08:38;;;;;;;18.07;1.77;;;;;;;27.82;nan;101496.69;6107376;23;20484;-89
2022/10/02 16:11:37;;;;;;;6.77;1.57;;;;;;;27.80;nan;101504.56;6155070;23;20405;-89
2022/10/02 16:14:14;;;;;;;5.17;1.13;;;;;;;27.77;nan;101505.97;6144999;23;20437;-88
2022/10/02 16:17:12;;;;;;;14.30;2.10;;;;;;;27.72;nan;101502.34;6136179;23;20412;-89
2022/10/02 16:20:22;;;;;;;13.07;2.07;;;;;;;27.69;nan;101500.16;6136345;23;20416;-89
2022/10/02 16:23:17;;;;;;;7.57;1.30;;;;;;;27.55;nan;101499.03;6158135;23;20491;-89
2022/10/02 16:26:00;;;;;;;10.73;1.97;;;;;;;27.55;nan;101499.88;6139231;23;20479;-88
2022/10/02 16:28:48;;;;;;;12.30;1.93;;;;;;;27.43;nan;101505.84;6159949;23;20415;-88
2022/10/02 16:31:32;;;;;;;9.83;1.70;;;;;;;27.37;nan;101511.78;6155446;23;20437;-89
2022/10/02 16:34:02;;;;;;;17.63;1.40;;;;;;;27.26;nan;101502.56;6130690;23;20460;-89
2022/10/02 16:37:14;;;;;;;10.47;1.50;;;;;;;27.17;nan;101502.31;6107503;23;20865;-89
2022/10/02 16:39:58;;;;;;;9.37;1.87;;;;;;;27.11;nan;101508.25;6203777;23;20412;-88
2022/10/02 16:42:40;;;;;;;13.80;1.43;;;;;;;27.01;nan;101502.66;6165763;23;20473;-88